createdAt,value
2019-06-08T00:02:16.541Z,94.30
2019-06-08T00:04:44.525Z,94.40
2019-06-08T00:07:13.101Z,94.50
2019-06-08T00:09:41.064Z,94.50
2019-06-08T00:12:08.991Z,94.60
2019-06-08T00:14:36.841Z,94.60
2019-06-08T00:17:04.666Z,94.60
2019-06-08T00:19:32.615Z,94.50
2019-06-08T00:22:00.471Z,94.40
2019-06-08T00:24:28.342Z,94.20
2019-06-08T00:26:56.206Z,94.30
2019-06-08T00:29:24.633Z,94.20
2019-06-08T00:31:52.633Z,94.20
2019-06-08T00:34:20.682Z,94.20
2019-06-08T00:36:48.691Z,94.20
2019-06-08T00:39:16.771Z,94.20
2019-06-08T00:41:44.718Z,94.20
2019-06-08T00:44:12.591Z,94.20
2019-06-08T00:46:40.455Z,94.20
2019-06-08T00:49:08.315Z,94.30
2019-06-08T00:51:36.182Z,94.40
2019-06-08T00:54:04.145Z,94.40
2019-06-08T00:56:32.066Z,94.50
2019-06-08T00:58:59.940Z,94.50
2019-06-08T01:01:28.306Z,94.50
2019-06-08T01:03:56.251Z,94.60
2019-06-08T01:06:24.997Z,94.60
2019-06-08T01:08:52.992Z,94.60
2019-06-08T01:11:21.007Z,94.70
2019-06-08T01:13:48.929Z,94.70
2019-06-08T01:16:16.799Z,94.70
2019-06-08T01:18:44.660Z,94.90
2019-06-08T01:21:12.467Z,94.60
2019-06-08T01:23:40.329Z,94.50
2019-06-08T01:26:08.194Z,94.50
2019-06-08T01:28:36.061Z,94.60
2019-06-08T01:31:03.934Z,94.60
2019-06-08T01:33:31.802Z,94.60
2019-06-08T01:35:59.665Z,94.80
2019-06-08T01:38:27.535Z,94.80
2019-06-08T01:40:55.389Z,94.90
2019-06-08T01:43:23.675Z,94.90
2019-06-08T01:45:51.622Z,95.10
2019-06-08T01:48:20.649Z,95.10
2019-06-08T01:50:49.003Z,95.20
2019-06-08T01:53:16.871Z,95.10
2019-06-08T01:55:44.738Z,95.00
2019-06-08T01:58:12.602Z,94.90
2019-06-08T02:00:41.575Z,95.30
2019-06-08T02:03:09.841Z,95.00
2019-06-08T02:05:37.714Z,95.00
2019-06-08T02:08:05.629Z,95.00
2019-06-08T02:10:33.440Z,94.90
2019-06-08T02:13:01.302Z,95.00
2019-06-08T02:15:29.206Z,94.90
2019-06-08T02:17:57.139Z,94.90
2019-06-08T02:20:26.266Z,94.90
2019-06-08T02:22:54.274Z,94.90
2019-06-08T02:25:23.949Z,94.80
2019-06-08T02:27:51.814Z,94.80
2019-06-08T02:30:19.983Z,94.80
2019-06-08T02:32:47.843Z,94.90
2019-06-08T02:35:15.720Z,94.80
2019-06-08T02:37:43.580Z,94.70
2019-06-08T02:40:11.755Z,94.60
2019-06-08T02:42:40.202Z,94.50
2019-06-08T02:45:08.179Z,94.50
2019-06-08T02:47:36.695Z,94.40
2019-06-08T02:50:06.224Z,94.40
2019-06-08T02:52:36.335Z,94.40
2019-06-08T02:55:05.752Z,94.40
2019-06-08T02:57:35.458Z,94.30
2019-06-08T03:00:03.135Z,94.30
2019-06-08T03:02:33.918Z,94.30
2019-06-08T03:05:02.867Z,94.20
2019-06-08T03:07:32.345Z,94.10
2019-06-08T03:10:00.263Z,94.50
2019-06-08T03:12:28.130Z,94.10
2019-06-08T03:14:56.196Z,94.10
2019-06-08T03:17:24.065Z,94.00
2019-06-08T03:19:51.935Z,94.00
2019-06-08T03:22:19.813Z,94.00
2019-06-08T03:24:47.685Z,94.10
2019-06-08T03:27:15.548Z,94.10
2019-06-08T03:29:43.969Z,93.80
2019-06-08T03:32:12.097Z,93.80
2019-06-08T03:34:47.698Z,93.80
2019-06-08T03:37:09.460Z,93.70
2019-06-08T03:39:38.814Z,93.60
2019-06-08T03:42:06.898Z,93.60
2019-06-08T03:44:36.103Z,93.50
2019-06-08T03:47:04.047Z,93.60
2019-06-08T03:49:42.773Z,93.50
2019-06-08T03:52:01.418Z,93.40
2019-06-08T03:54:29.283Z,93.50
2019-06-08T03:56:57.155Z,93.30
2019-06-08T03:59:25.032Z,93.40
2019-06-08T04:01:52.982Z,93.20
2019-06-08T04:04:20.849Z,93.20
2019-06-08T04:06:50.060Z,93.10
2019-06-08T04:09:18.079Z,93.00
2019-06-08T04:11:46.737Z,93.00
2019-06-08T04:14:14.810Z,92.80
2019-06-08T04:16:44.403Z,92.00
2019-06-08T04:19:12.255Z,91.60
2019-06-08T04:21:40.321Z,91.10
2019-06-08T04:24:08.584Z,91.30
2019-06-08T04:26:38.366Z,91.50
2019-06-08T04:29:05.964Z,91.50
2019-06-08T04:31:33.847Z,91.50
2019-06-08T04:34:01.707Z,91.60
2019-06-08T04:36:29.574Z,91.60
2019-06-08T04:38:57.442Z,91.50
2019-06-08T04:41:25.324Z,91.30
2019-06-08T04:43:53.174Z,91.20
2019-06-08T04:46:21.047Z,91.20
2019-06-08T04:48:50.053Z,90.70
2019-06-08T04:51:18.179Z,89.70
2019-06-08T04:53:47.225Z,86.90
2019-06-08T04:56:15.611Z,83.30
2019-06-08T04:58:44.728Z,79.40
2019-06-08T05:01:12.919Z,76.20
2019-06-08T05:03:42.814Z,74.10
2019-06-08T05:06:10.294Z,72.20
2019-06-08T05:08:39.064Z,72.30
2019-06-08T05:11:07.023Z,70.70
2019-06-08T05:13:34.899Z,68.30
2019-06-08T05:16:02.759Z,67.70
2019-06-08T05:18:30.551Z,68.90
2019-06-08T05:20:58.414Z,67.50
2019-06-08T05:23:26.333Z,67.60
2019-06-08T05:25:54.148Z,66.40
2019-06-08T05:28:22.005Z,65.70
2019-06-08T05:30:49.873Z,66.10
2019-06-08T05:33:17.890Z,66.40
2019-06-08T05:35:45.748Z,65.00
2019-06-08T05:38:13.609Z,64.90
2019-06-08T05:40:41.543Z,65.30
2019-06-08T05:43:09.433Z,66.20
2019-06-08T05:45:37.296Z,65.80
2019-06-08T05:48:05.154Z,67.10
2019-06-08T05:50:33.018Z,65.80
2019-06-08T05:53:03.944Z,65.80
2019-06-08T05:55:32.910Z,65.80
2019-06-08T05:58:00.774Z,65.50
2019-06-08T06:00:28.638Z,64.70
2019-06-08T06:02:56.503Z,63.50
2019-06-08T06:05:24.372Z,64.00
2019-06-08T06:07:52.238Z,64.80
2019-06-08T06:10:20.118Z,67.20
2019-06-08T06:12:49.062Z,67.30
2019-06-08T06:15:17.148Z,68.40
2019-06-08T06:17:46.598Z,68.90
2019-06-08T06:20:14.617Z,69.80
2019-06-08T06:22:43.913Z,69.20
2019-06-08T06:25:12.203Z,71.00
2019-06-08T06:27:41.281Z,70.10
2019-06-08T06:30:09.421Z,69.80
2019-06-08T06:32:37.281Z,70.30
2019-06-08T06:35:08.519Z,70.00
2019-06-08T06:37:36.378Z,70.30
2019-06-08T06:40:05.717Z,68.90
2019-06-08T06:42:33.570Z,69.20
2019-06-08T06:45:01.444Z,68.70
2019-06-08T06:47:30.897Z,68.80
2019-06-08T06:50:00.471Z,68.10
2019-06-08T06:52:28.262Z,67.10
2019-06-08T06:54:56.121Z,66.80
2019-06-08T06:57:23.990Z,66.00
2019-06-08T06:59:52.038Z,65.90
2019-06-08T07:02:21.209Z,64.50
2019-06-08T07:04:49.986Z,64.60
2019-06-08T07:07:17.866Z,64.20
2019-06-08T07:09:48.358Z,63.50
2019-06-08T07:12:16.457Z,63.00
2019-06-08T07:14:44.963Z,62.50
2019-06-08T07:17:12.860Z,60.60
2019-06-08T07:19:40.721Z,60.30
2019-06-08T07:22:08.591Z,59.40
2019-06-08T07:24:36.486Z,59.00
2019-06-08T07:27:07.369Z,58.10
2019-06-08T07:29:33.845Z,57.40
2019-06-08T07:32:01.725Z,57.70
2019-06-08T07:34:29.522Z,57.70
2019-06-08T07:36:57.366Z,58.50
2019-06-08T07:39:25.234Z,57.80
2019-06-08T07:41:54.276Z,57.50
2019-06-08T07:44:22.271Z,57.30
2019-06-08T07:46:51.332Z,56.40
2019-06-08T07:49:19.313Z,56.90
2019-06-08T07:51:59.471Z,58.00
2019-06-08T07:54:18.171Z,57.90
2019-06-08T07:56:46.031Z,58.30
2019-06-08T07:59:13.906Z,58.40
2019-06-08T08:01:41.780Z,58.40
2019-06-08T08:04:09.661Z,59.00
2019-06-08T08:06:37.522Z,59.10
2019-06-08T08:09:06.411Z,59.80
2019-06-08T08:11:34.274Z,60.90
2019-06-08T08:14:02.162Z,62.30
2019-06-08T08:16:30.034Z,62.40
2019-06-08T08:18:57.903Z,63.90
2019-06-08T08:21:27.179Z,64.50
2019-06-08T08:23:57.922Z,63.90
2019-06-08T08:26:27.139Z,65.00
2019-06-08T08:28:55.245Z,64.70
2019-06-08T08:31:23.826Z,64.70
2019-06-08T08:33:52.998Z,63.70
2019-06-08T08:36:21.227Z,63.70
2019-06-08T08:38:50.266Z,62.60
2019-06-08T08:41:18.626Z,62.00
2019-06-08T08:43:48.375Z,62.20
2019-06-08T08:46:17.302Z,62.50
2019-06-08T08:48:45.299Z,62.60
2019-06-08T08:51:13.164Z,63.50
2019-06-08T08:53:41.027Z,64.10
2019-06-08T08:56:08.894Z,63.60
2019-06-08T08:58:38.104Z,62.90
2019-06-08T09:01:08.137Z,62.50
2019-06-08T09:03:35.540Z,62.10
2019-06-08T09:06:03.944Z,62.10
2019-06-08T09:08:32.189Z,62.40
2019-06-08T09:11:03.215Z,61.20
2019-06-08T09:13:29.563Z,62.10
2019-06-08T09:16:00.188Z,63.30
2019-06-08T09:18:28.709Z,62.90
2019-06-08T09:20:58.921Z,63.30
2019-06-08T09:23:28.003Z,62.80
2019-06-08T09:26:00.434Z,62.00
2019-06-08T09:28:24.997Z,62.50
2019-06-08T09:30:54.074Z,62.00
2019-06-08T09:33:22.038Z,62.90
2019-06-08T09:35:49.907Z,63.20
2019-06-08T09:38:18.607Z,61.80
2019-06-08T09:40:48.727Z,61.90
2019-06-08T09:43:18.721Z,63.30
2019-06-08T09:45:48.132Z,62.60
2019-06-08T09:48:18.106Z,62.30
2019-06-08T09:50:44.773Z,62.70
2019-06-08T09:53:24.346Z,61.70
2019-06-08T09:55:42.157Z,60.90
2019-06-08T09:58:11.861Z,61.10
2019-06-08T10:00:39.553Z,61.60
2019-06-08T10:03:09.421Z,62.10
2019-06-08T10:05:38.846Z,62.40
2019-06-08T10:08:09.285Z,62.90
2019-06-08T10:10:35.983Z,62.90
2019-06-08T10:13:06.544Z,62.70
2019-06-08T10:15:33.361Z,62.20
2019-06-08T10:18:02.857Z,61.80
2019-06-08T10:20:30.942Z,60.40
2019-06-08T10:23:01.243Z,60.40
2019-06-08T10:25:30.557Z,61.00
2019-06-08T10:28:04.086Z,61.80
2019-06-08T10:30:28.400Z,62.60
2019-06-08T10:33:00.497Z,60.20
2019-06-08T10:35:28.358Z,60.40
2019-06-08T10:37:58.538Z,61.00
2019-06-08T10:40:25.614Z,61.50
2019-06-08T10:42:53.481Z,60.30
2019-06-08T10:45:21.365Z,59.40
2019-06-08T10:47:49.235Z,60.00
2019-06-08T10:50:19.193Z,59.30
2019-06-08T10:52:47.397Z,59.00
2019-06-08T10:55:17.857Z,58.80
2019-06-08T10:57:47.602Z,59.20
2019-06-08T11:00:22.758Z,59.10
2019-06-08T11:02:45.483Z,59.00
2019-06-08T11:05:14.201Z,58.50
2019-06-08T11:07:42.317Z,58.30
2019-06-08T11:10:12.089Z,58.20
2019-06-08T11:12:39.701Z,58.80
2019-06-08T11:15:11.249Z,59.50
2019-06-08T11:17:37.866Z,60.00
2019-06-08T11:20:11.153Z,61.50
2019-06-08T11:22:36.059Z,59.40
2019-06-08T11:25:08.309Z,60.00
2019-06-08T11:27:34.744Z,60.30
2019-06-08T11:30:10.832Z,60.60
2019-06-08T11:32:32.299Z,61.30
2019-06-08T11:35:01.918Z,60.70
2019-06-08T11:37:29.670Z,60.60
2019-06-08T11:39:57.732Z,60.10
2019-06-08T11:42:28.467Z,60.00
2019-06-08T11:44:55.228Z,59.70
2019-06-08T11:47:23.090Z,58.30
2019-06-08T11:49:50.962Z,59.20
2019-06-08T11:52:18.847Z,59.00
2019-06-08T11:54:48.077Z,59.00
2019-06-08T11:57:17.647Z,59.80
2019-06-08T11:59:48.540Z,59.80
2019-06-08T12:02:18.507Z,57.90
2019-06-08T12:04:46.034Z,57.90
2019-06-08T12:07:14.100Z,58.40
2019-06-08T12:09:42.066Z,57.90
2019-06-08T12:12:16.188Z,57.30
2019-06-08T12:14:40.469Z,57.60
2019-06-08T12:17:12.462Z,57.70
2019-06-08T12:19:38.114Z,58.50
2019-06-08T12:22:08.317Z,58.20
2019-06-08T12:24:42.110Z,57.80
2019-06-08T12:27:19.471Z,57.70
2019-06-08T12:29:34.624Z,57.20
2019-06-08T12:32:02.502Z,56.50
2019-06-08T12:34:30.374Z,56.40
2019-06-08T12:36:58.416Z,56.50
2019-06-08T12:39:28.198Z,56.90
2019-06-08T12:41:58.201Z,55.90
2019-06-08T12:44:28.515Z,56.00
2019-06-08T12:46:54.850Z,56.50
2019-06-08T12:49:22.715Z,57.20
2019-06-08T12:51:51.870Z,57.20
2019-06-08T12:54:20.811Z,57.00
2019-06-08T12:56:48.719Z,57.40
2019-06-08T12:59:20.949Z,57.50
2019-06-08T13:01:48.248Z,56.80
2019-06-08T13:04:15.892Z,55.90
2019-06-08T13:06:45.135Z,56.70
2019-06-08T13:09:13.492Z,57.10
2019-06-08T13:11:42.466Z,56.90
2019-06-08T13:14:11.830Z,57.40
2019-06-08T13:16:39.854Z,56.50
2019-06-08T13:19:09.227Z,57.10
2019-06-08T13:21:38.444Z,56.20
2019-06-08T13:24:08.380Z,55.30
2019-06-08T13:26:35.940Z,55.20
2019-06-08T13:29:03.815Z,55.40
2019-06-08T13:31:31.685Z,55.50
2019-06-08T13:33:59.569Z,55.30
2019-06-08T13:36:29.687Z,55.50
2019-06-08T13:38:56.944Z,55.20
2019-06-08T13:41:26.709Z,55.20
2019-06-08T13:43:54.317Z,54.30
2019-06-08T13:46:23.609Z,54.70
2019-06-08T13:48:51.558Z,55.00
2019-06-08T13:51:21.481Z,53.70
2019-06-08T13:53:50.018Z,54.60
2019-06-08T13:56:19.477Z,56.10
2019-06-08T13:58:48.421Z,55.60
2019-06-08T14:01:17.510Z,55.90
2019-06-08T14:03:49.811Z,56.10
2019-06-08T14:06:16.561Z,56.60
2019-06-08T14:08:45.278Z,56.90
2019-06-08T14:11:13.142Z,57.20
2019-06-08T14:13:41.008Z,57.40
2019-06-08T14:16:11.621Z,57.60
2019-06-08T14:18:38.654Z,56.50
2019-06-08T14:21:06.548Z,57.10
2019-06-08T14:23:34.421Z,57.40
2019-06-08T14:26:02.287Z,57.80
2019-06-08T14:28:30.423Z,58.20
2019-06-08T14:30:59.349Z,58.70
2019-06-08T14:33:32.074Z,59.20
2019-06-08T14:35:59.183Z,59.50
2019-06-08T14:38:35.048Z,59.40
2019-06-08T14:40:56.038Z,60.10
2019-06-08T14:43:24.729Z,59.50
2019-06-08T14:45:52.660Z,59.10
2019-06-08T14:48:24.298Z,59.30
2019-06-08T14:50:50.041Z,59.70
2019-06-08T14:53:18.869Z,59.40
2019-06-08T14:55:49.977Z,58.80
2019-06-08T14:58:18.596Z,58.60
2019-06-08T15:00:47.966Z,58.70
2019-06-08T15:03:17.988Z,58.90
2019-06-08T15:05:47.707Z,59.10
2019-06-08T15:08:17.447Z,58.40
2019-06-08T15:10:44.547Z,58.60
2019-06-08T15:13:12.405Z,57.30
2019-06-08T15:15:40.278Z,57.50
2019-06-08T15:18:11.003Z,58.10
2019-06-08T15:20:38.016Z,58.70
2019-06-08T15:23:08.277Z,59.50
2019-06-08T15:25:35.542Z,58.80
2019-06-08T15:28:03.406Z,59.30
2019-06-08T15:30:32.786Z,58.20
2019-06-08T15:33:00.749Z,57.90
2019-06-08T15:35:29.439Z,57.40
2019-06-08T15:37:58.530Z,57.10
2019-06-08T15:40:27.701Z,57.90
2019-06-08T15:42:58.335Z,58.10
2019-06-08T15:45:26.918Z,58.10
2019-06-08T15:47:54.737Z,58.50
2019-06-08T15:50:22.598Z,58.60
2019-06-08T15:52:50.461Z,59.10
2019-06-08T15:55:19.044Z,59.00
2019-06-08T15:57:47.506Z,59.00
2019-06-08T16:00:15.631Z,59.20
2019-06-08T16:02:43.501Z,59.70
2019-06-08T16:05:11.366Z,60.20
2019-06-08T16:07:39.236Z,60.30
2019-06-08T16:10:07.299Z,60.60
2019-06-08T16:12:35.200Z,60.60
2019-06-08T16:15:03.663Z,60.90
2019-06-08T16:17:31.536Z,61.50
2019-06-08T16:19:59.506Z,61.30
2019-06-08T16:22:27.695Z,62.00
2019-06-08T16:24:55.653Z,61.90
2019-06-08T16:27:23.516Z,62.00
2019-06-08T16:29:51.378Z,62.60
2019-06-08T16:32:19.243Z,62.90
2019-06-08T16:34:47.115Z,63.20
2019-06-08T16:37:15.225Z,63.30
2019-06-08T16:39:43.069Z,63.40
2019-06-08T16:42:10.942Z,63.80
2019-06-08T16:44:38.807Z,64.20
2019-06-08T16:47:06.673Z,64.20
2019-06-08T16:49:35.389Z,64.10
2019-06-08T16:52:03.549Z,65.10
2019-06-08T16:54:32.723Z,67.20
2019-06-08T16:57:09.999Z,68.70
2019-06-08T16:59:30.293Z,69.80
2019-06-08T17:01:58.159Z,70.20
2019-06-08T17:04:26.030Z,71.20
2019-06-08T17:06:53.911Z,72.10
2019-06-08T17:09:21.779Z,72.60
2019-06-08T17:11:50.423Z,73.10
2019-06-08T17:14:18.414Z,73.60
2019-06-08T17:16:46.288Z,74.00
2019-06-08T17:19:14.151Z,74.00
2019-06-08T17:21:42.024Z,74.50
2019-06-08T17:24:09.883Z,74.80
2019-06-08T17:26:38.726Z,74.90
2019-06-08T17:29:07.019Z,75.00
2019-06-08T17:31:35.226Z,74.80
2019-06-08T17:34:03.154Z,74.90
2019-06-08T17:36:31.933Z,75.10
2019-06-08T17:38:59.949Z,75.50
2019-06-08T17:41:27.818Z,75.40
2019-06-08T17:43:55.680Z,76.10
2019-06-08T17:46:23.546Z,76.10
2019-06-08T17:48:51.414Z,76.00
2019-06-08T17:51:19.334Z,76.20
2019-06-08T17:53:47.203Z,75.90
2019-06-08T17:56:15.062Z,76.00
2019-06-08T17:58:43.437Z,76.30
2019-06-08T18:01:11.401Z,76.30
2019-06-08T18:03:41.016Z,76.40
2019-06-08T18:06:08.802Z,76.60
2019-06-08T18:08:40.318Z,76.80
2019-06-08T18:11:08.056Z,77.00
2019-06-08T18:13:36.886Z,77.50
2019-06-08T18:16:05.212Z,77.70
2019-06-08T18:18:34.107Z,77.80
2019-06-08T18:21:02.045Z,77.90
2019-06-08T18:23:29.918Z,78.20
2019-06-08T18:25:58.152Z,78.40
2019-06-08T18:28:28.167Z,78.40
2019-06-08T18:30:58.046Z,78.60
2019-06-08T18:33:27.029Z,78.50
2019-06-08T18:35:57.508Z,78.60
2019-06-08T18:38:24.618Z,78.70
2019-06-08T18:40:52.547Z,78.60
2019-06-08T18:43:21.884Z,78.70
2019-06-08T18:45:49.979Z,78.90
2019-06-08T18:48:17.977Z,79.00
2019-06-08T18:50:48.433Z,79.20
2019-06-08T18:53:15.382Z,79.00
2019-06-08T18:55:43.996Z,79.30
2019-06-08T18:58:20.628Z,79.60
2019-06-08T19:00:44.895Z,79.60
2019-06-08T19:03:11.871Z,79.70
2019-06-08T19:05:43.554Z,80.00
2019-06-08T19:08:10.146Z,80.20
2019-06-08T19:10:39.462Z,80.10
2019-06-08T19:13:07.748Z,80.00
2019-06-08T19:15:39.698Z,80.20
2019-06-08T19:18:08.184Z,80.20
2019-06-08T19:20:37.258Z,81.30
2019-06-08T19:23:05.263Z,80.90
2019-06-08T19:25:33.129Z,80.90
2019-06-08T19:28:00.994Z,81.20
2019-06-08T19:30:28.873Z,81.30
2019-06-08T19:32:57.853Z,81.40
2019-06-08T19:35:27.373Z,82.10
2019-06-08T19:37:58.131Z,82.10
2019-06-08T19:40:27.040Z,82.60
2019-06-08T19:42:58.075Z,82.50
2019-06-08T19:45:23.913Z,83.10
2019-06-08T19:47:51.706Z,82.40
2019-06-08T19:50:19.573Z,82.50
2019-06-08T19:52:53.032Z,82.70
2019-06-08T19:55:18.097Z,82.60
2019-06-08T19:57:48.939Z,82.60
2019-06-08T20:00:17.889Z,82.90
2019-06-08T20:02:47.976Z,82.90
2019-06-08T20:05:17.337Z,83.10
2019-06-08T20:07:44.947Z,83.40
2019-06-08T20:10:12.945Z,83.60
2019-06-08T20:12:41.201Z,83.20
2019-06-08T20:15:09.474Z,83.40
2019-06-08T20:17:37.400Z,83.50
2019-06-08T20:20:07.737Z,84.00
2019-06-08T20:22:37.481Z,84.50
2019-06-08T20:25:09.874Z,84.80
2019-06-08T20:27:37.254Z,86.10
2019-06-08T20:30:12.202Z,86.00
2019-06-08T20:32:38.561Z,86.50
2019-06-08T20:35:08.002Z,86.90
2019-06-08T20:37:37.676Z,87.50
2019-06-08T20:40:12.772Z,87.70
2019-06-08T20:42:37.622Z,87.90
2019-06-08T20:45:08.092Z,88.00
2019-06-08T20:47:36.799Z,87.90
2019-06-08T20:50:07.456Z,88.20
2019-06-08T20:52:37.596Z,88.30
2019-06-08T20:55:07.601Z,88.50
2019-06-08T20:57:35.173Z,88.70
2019-06-08T21:00:11.029Z,89.00
2019-06-08T21:02:34.262Z,89.20
2019-06-08T21:05:02.143Z,90.00
2019-06-08T21:07:30.003Z,89.40
2019-06-08T21:09:58.239Z,89.70
2019-06-08T21:12:28.367Z,89.70
2019-06-08T21:14:57.658Z,90.10
2019-06-08T21:17:27.521Z,90.20
2019-06-08T21:19:58.052Z,90.30
2019-06-08T21:22:27.756Z,90.70
2019-06-08T21:24:59.745Z,91.10
2019-06-08T21:27:24.954Z,91.30
2019-06-08T21:30:01.000Z,91.30
2019-06-08T21:32:22.433Z,92.10
2019-06-08T21:34:52.042Z,92.20
2019-06-08T21:37:19.811Z,92.40
2019-06-08T21:39:50.499Z,92.90
2019-06-08T21:42:17.301Z,93.10
2019-06-08T21:44:45.174Z,93.20
2019-06-08T21:47:13.626Z,93.30
2019-06-08T21:49:41.507Z,93.50
2019-06-08T21:52:09.388Z,93.50
2019-06-08T21:54:37.628Z,93.80
2019-06-08T21:57:08.944Z,93.70
2019-06-08T21:59:35.129Z,93.90
2019-06-08T22:02:04.074Z,94.00
2019-06-08T22:04:32.066Z,94.00
2019-06-08T22:07:01.617Z,93.90
2019-06-08T22:09:29.451Z,94.00
2019-06-08T23:06:17.678Z,94.20
2019-06-08T23:08:45.102Z,98.90
2019-06-08T23:11:12.971Z,98.90
2019-06-08T23:13:40.841Z,98.80
2019-06-08T23:16:09.101Z,99.00
2019-06-08T23:18:37.414Z,99.00
2019-06-08T23:21:06.548Z,99.10
2019-06-08T23:23:34.951Z,99.20
2019-06-08T23:26:05.216Z,99.20
2019-06-08T23:28:32.332Z,99.50
2019-06-08T23:31:13.101Z,99.70
2019-06-08T23:33:29.758Z,99.90
